sensor_id;sensor_type;location;lat;lon;timestamp;P1;durP1;ratioP1;P2;durP2;ratioP2
4434;SDS011;46552;52.150;8.428;2023-03-07T00:00:35;46.03;;;20.40;;
4434;SDS011;46552;52.150;8.428;2023-03-07T00:03:05;38.40;;;17.40;;
4434;SDS011;46552;52.150;8.428;2023-03-07T00:05:33;47.80;;;18.83;;
4434;SDS011;46552;52.150;8.428;2023-03-07T00:08:00;40.13;;;18.77;;
4434;SDS011;46552;52.150;8.428;2023-03-07T00:10:27;44.37;;;19.47;;
4434;SDS011;46552;52.150;8.428;2023-03-07T00:12:54;42.37;;;18.97;;
4434;SDS011;46552;52.150;8.428;2023-03-07T00:15:22;46.23;;;18.13;;
4434;SDS011;46552;52.150;8.428;2023-03-07T00:17:50;38.43;;;16.57;;
4434;SDS011;46552;52.150;8.428;2023-03-07T00:20:18;53.03;;;20.17;;
4434;SDS011;46552;52.150;8.428;2023-03-07T00:22:46;41.63;;;18.93;;
4434;SDS011;46552;52.150;8.428;2023-03-07T00:25:13;39.30;;;17.73;;
4434;SDS011;46552;52.150;8.428;2023-03-07T00:27:40;34.80;;;16.40;;
4434;SDS011;46552;52.150;8.428;2023-03-07T00:30:08;40.00;;;17.33;;
4434;SDS011;46552;52.150;8.428;2023-03-07T00:32:36;38.77;;;17.77;;
4434;SDS011;46552;52.150;8.428;2023-03-07T00:35:03;44.70;;;19.03;;
4434;SDS011;46552;52.150;8.428;2023-03-07T00:37:32;33.17;;;16.37;;
4434;SDS011;46552;52.150;8.428;2023-03-07T00:39:59;49.10;;;18.10;;
4434;SDS011;46552;52.150;8.428;2023-03-07T00:42:31;38.40;;;16.20;;
4434;SDS011;46552;52.150;8.428;2023-03-07T00:44:58;36.23;;;15.27;;
4434;SDS011;46552;52.150;8.428;2023-03-07T00:47:25;42.70;;;17.60;;
4434;SDS011;46552;52.150;8.428;2023-03-07T00:49:55;37.30;;;17.50;;
4434;SDS011;46552;52.150;8.428;2023-03-07T00:52:22;34.63;;;16.47;;
4434;SDS011;46552;52.150;8.428;2023-03-07T00:54:52;37.17;;;16.20;;
4434;SDS011;46552;52.150;8.428;2023-03-07T00:57:21;41.83;;;19.27;;
4434;SDS011;46552;52.150;8.428;2023-03-07T00:59:48;34.90;;;17.00;;
4434;SDS011;46552;52.150;8.428;2023-03-07T01:02:15;36.60;;;17.53;;
4434;SDS011;46552;52.150;8.428;2023-03-07T01:04:43;43.83;;;20.43;;
4434;SDS011;46552;52.150;8.428;2023-03-07T01:07:10;37.90;;;16.93;;
4434;SDS011;46552;52.150;8.428;2023-03-07T01:09:37;39.40;;;17.17;;
4434;SDS011;46552;52.150;8.428;2023-03-07T01:12:06;38.67;;;19.27;;
4434;SDS011;46552;52.150;8.428;2023-03-07T01:14:34;37.13;;;18.03;;
4434;SDS011;46552;52.150;8.428;2023-03-07T01:17:02;39.20;;;19.67;;
4434;SDS011;46552;52.150;8.428;2023-03-07T01:19:29;39.33;;;18.43;;
4434;SDS011;46552;52.150;8.428;2023-03-07T01:21:57;43.50;;;17.57;;
4434;SDS011;46552;52.150;8.428;2023-03-07T01:24:25;39.83;;;18.43;;
4434;SDS011;46552;52.150;8.428;2023-03-07T01:26:52;45.40;;;19.40;;
4434;SDS011;46552;52.150;8.428;2023-03-07T01:29:21;35.43;;;16.73;;
4434;SDS011;46552;52.150;8.428;2023-03-07T01:31:48;40.50;;;18.53;;
4434;SDS011;46552;52.150;8.428;2023-03-07T01:34:15;37.37;;;17.07;;
4434;SDS011;46552;52.150;8.428;2023-03-07T01:36:43;41.57;;;19.37;;
4434;SDS011;46552;52.150;8.428;2023-03-07T01:39:12;38.40;;;16.93;;
4434;SDS011;46552;52.150;8.428;2023-03-07T01:41:41;33.90;;;17.60;;
4434;SDS011;46552;52.150;8.428;2023-03-07T01:44:14;33.67;;;18.40;;
4434;SDS011;46552;52.150;8.428;2023-03-07T01:46:48;41.53;;;17.60;;
4434;SDS011;46552;52.150;8.428;2023-03-07T01:49:21;41.77;;;18.90;;
4434;SDS011;46552;52.150;8.428;2023-03-07T01:51:51;36.93;;;18.63;;
4434;SDS011;46552;52.150;8.428;2023-03-07T01:54:23;39.03;;;19.07;;
4434;SDS011;46552;52.150;8.428;2023-03-07T01:56:51;40.30;;;19.30;;
4434;SDS011;46552;52.150;8.428;2023-03-07T01:59:20;34.60;;;17.20;;
4434;SDS011;46552;52.150;8.428;2023-03-07T02:01:55;47.27;;;20.43;;
4434;SDS011;46552;52.150;8.428;2023-03-07T02:04:26;45.30;;;20.70;;
4434;SDS011;46552;52.150;8.428;2023-03-07T02:06:58;41.33;;;20.57;;
4434;SDS011;46552;52.150;8.428;2023-03-07T02:09:26;42.87;;;19.03;;
4434;SDS011;46552;52.150;8.428;2023-03-07T02:11:53;47.03;;;21.40;;
4434;SDS011;46552;52.150;8.428;2023-03-07T02:14:22;39.97;;;19.30;;
4434;SDS011;46552;52.150;8.428;2023-03-07T02:16:50;40.37;;;18.20;;
4434;SDS011;46552;52.150;8.428;2023-03-07T02:19:27;45.77;;;19.83;;
4434;SDS011;46552;52.150;8.428;2023-03-07T02:22:07;47.07;;;19.57;;
4434;SDS011;46552;52.150;8.428;2023-03-07T02:24:39;42.50;;;19.20;;
4434;SDS011;46552;52.150;8.428;2023-03-07T02:27:12;46.13;;;21.27;;
4434;SDS011;46552;52.150;8.428;2023-03-07T02:29:40;37.67;;;19.03;;
4434;SDS011;46552;52.150;8.428;2023-03-07T02:32:07;43.57;;;18.03;;
4434;SDS011;46552;52.150;8.428;2023-03-07T02:34:34;35.47;;;17.30;;
4434;SDS011;46552;52.150;8.428;2023-03-07T02:37:03;36.87;;;15.70;;
4434;SDS011;46552;52.150;8.428;2023-03-07T02:39:33;35.70;;;18.33;;
4434;SDS011;46552;52.150;8.428;2023-03-07T02:42:02;36.67;;;18.30;;
4434;SDS011;46552;52.150;8.428;2023-03-07T02:44:36;27.97;;;14.80;;
4434;SDS011;46552;52.150;8.428;2023-03-07T02:47:03;43.63;;;19.60;;
4434;SDS011;46552;52.150;8.428;2023-03-07T02:49:33;37.53;;;17.33;;
4434;SDS011;46552;52.150;8.428;2023-03-07T02:52:00;32.60;;;16.13;;
4434;SDS011;46552;52.150;8.428;2023-03-07T02:54:27;28.83;;;16.17;;
4434;SDS011;46552;52.150;8.428;2023-03-07T02:56:55;36.23;;;16.20;;
4434;SDS011;46552;52.150;8.428;2023-03-07T02:59:23;33.30;;;16.73;;
4434;SDS011;46552;52.150;8.428;2023-03-07T03:01:53;34.27;;;16.60;;
4434;SDS011;46552;52.150;8.428;2023-03-07T03:04:20;30.40;;;15.57;;
4434;SDS011;46552;52.150;8.428;2023-03-07T03:06:48;28.77;;;14.77;;
4434;SDS011;46552;52.150;8.428;2023-03-07T03:09:15;33.07;;;15.93;;
4434;SDS011;46552;52.150;8.428;2023-03-07T03:11:43;31.83;;;14.63;;
4434;SDS011;46552;52.150;8.428;2023-03-07T03:14:10;28.00;;;14.93;;
4434;SDS011;46552;52.150;8.428;2023-03-07T03:16:38;35.97;;;17.73;;
4434;SDS011;46552;52.150;8.428;2023-03-07T03:19:07;31.73;;;16.33;;
4434;SDS011;46552;52.150;8.428;2023-03-07T03:21:35;31.07;;;15.70;;
4434;SDS011;46552;52.150;8.428;2023-03-07T03:24:03;31.67;;;16.13;;
4434;SDS011;46552;52.150;8.428;2023-03-07T03:26:31;32.87;;;16.33;;
4434;SDS011;46552;52.150;8.428;2023-03-07T03:28:58;30.83;;;15.03;;
4434;SDS011;46552;52.150;8.428;2023-03-07T03:31:25;26.07;;;12.77;;
4434;SDS011;46552;52.150;8.428;2023-03-07T03:33:54;28.37;;;13.97;;
4434;SDS011;46552;52.150;8.428;2023-03-07T03:36:24;29.63;;;14.80;;
4434;SDS011;46552;52.150;8.428;2023-03-07T03:38:53;25.67;;;13.33;;
4434;SDS011;46552;52.150;8.428;2023-03-07T03:41:21;25.10;;;12.20;;
4434;SDS011;46552;52.150;8.428;2023-03-07T03:43:50;15.00;;;8.07;;
4434;SDS011;46552;52.150;8.428;2023-03-07T03:46:17;15.07;;;7.50;;
4434;SDS011;46552;52.150;8.428;2023-03-07T03:48:49;25.00;;;8.00;;
4434;SDS011;46552;52.150;8.428;2023-03-07T03:51:17;15.43;;;8.73;;
4434;SDS011;46552;52.150;8.428;2023-03-07T03:53:46;22.20;;;10.10;;
4434;SDS011;46552;52.150;8.428;2023-03-07T03:56:15;19.97;;;11.57;;
4434;SDS011;46552;52.150;8.428;2023-03-07T03:58:45;24.93;;;9.47;;
4434;SDS011;46552;52.150;8.428;2023-03-07T04:01:13;16.70;;;9.10;;
4434;SDS011;46552;52.150;8.428;2023-03-07T04:03:42;19.47;;;10.20;;
4434;SDS011;46552;52.150;8.428;2023-03-07T04:06:10;18.70;;;10.23;;
4434;SDS011;46552;52.150;8.428;2023-03-07T04:08:39;20.10;;;10.77;;
4434;SDS011;46552;52.150;8.428;2023-03-07T04:11:08;20.30;;;10.50;;
4434;SDS011;46552;52.150;8.428;2023-03-07T04:13:35;19.83;;;10.80;;
4434;SDS011;46552;52.150;8.428;2023-03-07T04:16:03;18.97;;;10.50;;
4434;SDS011;46552;52.150;8.428;2023-03-07T04:18:31;22.37;;;10.60;;
4434;SDS011;46552;52.150;8.428;2023-03-07T04:20:59;21.53;;;11.33;;
4434;SDS011;46552;52.150;8.428;2023-03-07T04:23:26;19.73;;;11.37;;
4434;SDS011;46552;52.150;8.428;2023-03-07T04:25:54;21.03;;;10.97;;
4434;SDS011;46552;52.150;8.428;2023-03-07T04:28:24;21.80;;;11.93;;
4434;SDS011;46552;52.150;8.428;2023-03-07T04:30:53;16.80;;;9.17;;
4434;SDS011;46552;52.150;8.428;2023-03-07T04:33:21;17.70;;;10.23;;
4434;SDS011;46552;52.150;8.428;2023-03-07T04:35:52;16.63;;;9.90;;
4434;SDS011;46552;52.150;8.428;2023-03-07T04:38:20;17.80;;;9.23;;
4434;SDS011;46552;52.150;8.428;2023-03-07T04:40:47;17.07;;;8.57;;
4434;SDS011;46552;52.150;8.428;2023-03-07T04:43:15;15.10;;;8.00;;
4434;SDS011;46552;52.150;8.428;2023-03-07T04:45:44;10.83;;;6.20;;
4434;SDS011;46552;52.150;8.428;2023-03-07T04:48:11;12.13;;;6.37;;
4434;SDS011;46552;52.150;8.428;2023-03-07T04:50:39;11.47;;;5.47;;
4434;SDS011;46552;52.150;8.428;2023-03-07T04:53:06;9.47;;;5.33;;
4434;SDS011;46552;52.150;8.428;2023-03-07T04:55:33;11.57;;;5.90;;
4434;SDS011;46552;52.150;8.428;2023-03-07T04:58:01;11.00;;;6.10;;
4434;SDS011;46552;52.150;8.428;2023-03-07T05:00:28;14.13;;;7.40;;
4434;SDS011;46552;52.150;8.428;2023-03-07T05:02:58;12.70;;;6.50;;
4434;SDS011;46552;52.150;8.428;2023-03-07T05:05:26;11.30;;;5.90;;
4434;SDS011;46552;52.150;8.428;2023-03-07T05:07:53;17.23;;;5.90;;
4434;SDS011;46552;52.150;8.428;2023-03-07T05:10:20;10.67;;;6.70;;
4434;SDS011;46552;52.150;8.428;2023-03-07T05:12:48;16.53;;;6.77;;
4434;SDS011;46552;52.150;8.428;2023-03-07T05:15:16;13.10;;;6.50;;
4434;SDS011;46552;52.150;8.428;2023-03-07T05:17:44;11.80;;;5.63;;
4434;SDS011;46552;52.150;8.428;2023-03-07T05:20:15;14.87;;;6.10;;
4434;SDS011;46552;52.150;8.428;2023-03-07T05:22:43;15.20;;;6.13;;
4434;SDS011;46552;52.150;8.428;2023-03-07T05:25:10;19.17;;;5.83;;
4434;SDS011;46552;52.150;8.428;2023-03-07T05:27:39;14.93;;;6.33;;
4434;SDS011;46552;52.150;8.428;2023-03-07T05:30:07;17.80;;;6.20;;
4434;SDS011;46552;52.150;8.428;2023-03-07T05:32:36;18.00;;;6.23;;
4434;SDS011;46552;52.150;8.428;2023-03-07T05:35:03;15.43;;;5.33;;
4434;SDS011;46552;52.150;8.428;2023-03-07T05:37:32;13.07;;;6.10;;
4434;SDS011;46552;52.150;8.428;2023-03-07T05:40:00;8.97;;;4.50;;
4434;SDS011;46552;52.150;8.428;2023-03-07T05:42:29;14.13;;;5.47;;
4434;SDS011;46552;52.150;8.428;2023-03-07T05:44:58;13.73;;;5.90;;
4434;SDS011;46552;52.150;8.428;2023-03-07T05:47:25;7.50;;;3.80;;
4434;SDS011;46552;52.150;8.428;2023-03-07T05:49:52;9.70;;;4.17;;
4434;SDS011;46552;52.150;8.428;2023-03-07T05:52:20;7.80;;;4.07;;
4434;SDS011;46552;52.150;8.428;2023-03-07T05:54:49;17.23;;;4.23;;
4434;SDS011;46552;52.150;8.428;2023-03-07T05:57:16;7.33;;;4.03;;
4434;SDS011;46552;52.150;8.428;2023-03-07T05:59:43;10.50;;;3.80;;
4434;SDS011;46552;52.150;8.428;2023-03-07T06:02:11;9.10;;;3.90;;
4434;SDS011;46552;52.150;8.428;2023-03-07T06:04:38;10.70;;;4.57;;
4434;SDS011;46552;52.150;8.428;2023-03-07T06:07:05;14.93;;;4.30;;
4434;SDS011;46552;52.150;8.428;2023-03-07T06:09:33;6.83;;;3.30;;
4434;SDS011;46552;52.150;8.428;2023-03-07T06:12:03;10.73;;;3.30;;
4434;SDS011;46552;52.150;8.428;2023-03-07T06:14:30;10.17;;;4.83;;
4434;SDS011;46552;52.150;8.428;2023-03-07T06:16:58;6.87;;;3.27;;
4434;SDS011;46552;52.150;8.428;2023-03-07T06:19:26;8.73;;;2.97;;
4434;SDS011;46552;52.150;8.428;2023-03-07T06:21:53;8.10;;;3.77;;
4434;SDS011;46552;52.150;8.428;2023-03-07T06:24:21;13.43;;;4.17;;
4434;SDS011;46552;52.150;8.428;2023-03-07T06:26:48;6.73;;;3.47;;
4434;SDS011;46552;52.150;8.428;2023-03-07T06:29:17;30.27;;;4.80;;
4434;SDS011;46552;52.150;8.428;2023-03-07T06:31:46;16.97;;;4.37;;
4434;SDS011;46552;52.150;8.428;2023-03-07T06:34:14;8.63;;;3.67;;
4434;SDS011;46552;52.150;8.428;2023-03-07T06:36:41;12.30;;;3.10;;
4434;SDS011;46552;52.150;8.428;2023-03-07T06:39:08;20.03;;;3.43;;
4434;SDS011;46552;52.150;8.428;2023-03-07T06:41:36;7.63;;;3.03;;
4434;SDS011;46552;52.150;8.428;2023-03-07T06:44:03;10.23;;;3.70;;
4434;SDS011;46552;52.150;8.428;2023-03-07T06:46:32;7.50;;;2.93;;
4434;SDS011;46552;52.150;8.428;2023-03-07T06:48:59;16.03;;;4.23;;
4434;SDS011;46552;52.150;8.428;2023-03-07T06:51:26;23.17;;;4.20;;
4434;SDS011;46552;52.150;8.428;2023-03-07T06:53:53;10.93;;;3.80;;
4434;SDS011;46552;52.150;8.428;2023-03-07T06:56:21;13.03;;;3.70;;
4434;SDS011;46552;52.150;8.428;2023-03-07T06:58:49;9.27;;;3.13;;
4434;SDS011;46552;52.150;8.428;2023-03-07T07:01:16;9.03;;;4.33;;
4434;SDS011;46552;52.150;8.428;2023-03-07T07:03:46;8.13;;;4.50;;
4434;SDS011;46552;52.150;8.428;2023-03-07T07:06:14;8.47;;;4.40;;
4434;SDS011;46552;52.150;8.428;2023-03-07T07:08:41;10.63;;;3.93;;
4434;SDS011;46552;52.150;8.428;2023-03-07T07:11:08;11.37;;;3.77;;
4434;SDS011;46552;52.150;8.428;2023-03-07T07:13:36;14.43;;;4.00;;
4434;SDS011;46552;52.150;8.428;2023-03-07T07:16:04;9.17;;;4.43;;
4434;SDS011;46552;52.150;8.428;2023-03-07T07:18:31;11.40;;;4.87;;
4434;SDS011;46552;52.150;8.428;2023-03-07T07:21:01;10.47;;;4.80;;
4434;SDS011;46552;52.150;8.428;2023-03-07T07:23:29;9.60;;;5.07;;
4434;SDS011;46552;52.150;8.428;2023-03-07T07:25:57;12.33;;;4.33;;
4434;SDS011;46552;52.150;8.428;2023-03-07T07:28:24;10.73;;;4.60;;
4434;SDS011;46552;52.150;8.428;2023-03-07T07:30:51;7.63;;;3.70;;
4434;SDS011;46552;52.150;8.428;2023-03-07T07:33:19;13.77;;;4.30;;
4434;SDS011;46552;52.150;8.428;2023-03-07T07:35:46;12.20;;;4.93;;
4434;SDS011;46552;52.150;8.428;2023-03-07T07:38:16;8.63;;;4.20;;
4434;SDS011;46552;52.150;8.428;2023-03-07T07:40:43;8.67;;;3.73;;
4434;SDS011;46552;52.150;8.428;2023-03-07T07:43:12;7.63;;;4.03;;
4434;SDS011;46552;52.150;8.428;2023-03-07T07:45:41;9.37;;;4.10;;
4434;SDS011;46552;52.150;8.428;2023-03-07T07:48:09;13.43;;;3.27;;
4434;SDS011;46552;52.150;8.428;2023-03-07T07:50:36;6.13;;;2.70;;
4434;SDS011;46552;52.150;8.428;2023-03-07T07:53:04;5.80;;;3.03;;
4434;SDS011;46552;52.150;8.428;2023-03-07T07:55:32;7.93;;;3.17;;
4434;SDS011;46552;52.150;8.428;2023-03-07T07:57:59;4.40;;;2.57;;
4434;SDS011;46552;52.150;8.428;2023-03-07T08:00:27;4.77;;;2.20;;
4434;SDS011;46552;52.150;8.428;2023-03-07T08:02:54;8.37;;;3.07;;
4434;SDS011;46552;52.150;8.428;2023-03-07T08:05:21;3.10;;;1.70;;
4434;SDS011;46552;52.150;8.428;2023-03-07T08:07:49;4.57;;;1.87;;
4434;SDS011;46552;52.150;8.428;2023-03-07T08:10:16;5.67;;;2.33;;
4434;SDS011;46552;52.150;8.428;2023-03-07T08:12:48;4.53;;;2.27;;
4434;SDS011;46552;52.150;8.428;2023-03-07T08:15:16;4.87;;;1.77;;
4434;SDS011;46552;52.150;8.428;2023-03-07T08:17:45;4.73;;;2.60;;
4434;SDS011;46552;52.150;8.428;2023-03-07T08:20:13;6.60;;;2.30;;
4434;SDS011;46552;52.150;8.428;2023-03-07T08:22:40;4.00;;;1.73;;
4434;SDS011;46552;52.150;8.428;2023-03-07T08:25:13;9.87;;;3.10;;
4434;SDS011;46552;52.150;8.428;2023-03-07T08:27:44;6.20;;;2.37;;
4434;SDS011;46552;52.150;8.428;2023-03-07T08:30:15;7.30;;;2.77;;
4434;SDS011;46552;52.150;8.428;2023-03-07T08:32:42;5.17;;;2.50;;
4434;SDS011;46552;52.150;8.428;2023-03-07T08:35:09;7.80;;;2.10;;
4434;SDS011;46552;52.150;8.428;2023-03-07T08:37:37;5.03;;;1.97;;
4434;SDS011;46552;52.150;8.428;2023-03-07T08:40:05;9.23;;;2.33;;
4434;SDS011;46552;52.150;8.428;2023-03-07T08:42:32;8.10;;;2.60;;
4434;SDS011;46552;52.150;8.428;2023-03-07T08:45:00;4.23;;;1.67;;
4434;SDS011;46552;52.150;8.428;2023-03-07T08:47:29;4.13;;;1.80;;
4434;SDS011;46552;52.150;8.428;2023-03-07T08:49:56;6.23;;;2.20;;
4434;SDS011;46552;52.150;8.428;2023-03-07T08:52:24;3.73;;;1.73;;
4434;SDS011;46552;52.150;8.428;2023-03-07T08:54:51;4.80;;;2.20;;
4434;SDS011;46552;52.150;8.428;2023-03-07T08:57:19;5.03;;;1.80;;
4434;SDS011;46552;52.150;8.428;2023-03-07T08:59:46;4.20;;;2.30;;
4434;SDS011;46552;52.150;8.428;2023-03-07T09:02:13;4.40;;;2.10;;
4434;SDS011;46552;52.150;8.428;2023-03-07T09:04:42;4.03;;;1.50;;
4434;SDS011;46552;52.150;8.428;2023-03-07T09:07:10;3.17;;;1.40;;
4434;SDS011;46552;52.150;8.428;2023-03-07T09:09:37;5.63;;;1.27;;
4434;SDS011;46552;52.150;8.428;2023-03-07T09:12:04;4.27;;;1.70;;
4434;SDS011;46552;52.150;8.428;2023-03-07T09:14:32;5.17;;;1.23;;
4434;SDS011;46552;52.150;8.428;2023-03-07T09:16:59;4.20;;;1.50;;
4434;SDS011;46552;52.150;8.428;2023-03-07T09:19:27;7.43;;;1.97;;
4434;SDS011;46552;52.150;8.428;2023-03-07T09:21:56;4.10;;;1.70;;
4434;SDS011;46552;52.150;8.428;2023-03-07T09:24:23;4.23;;;1.63;;
4434;SDS011;46552;52.150;8.428;2023-03-07T09:26:50;5.30;;;1.73;;
4434;SDS011;46552;52.150;8.428;2023-03-07T09:29:18;4.17;;;1.40;;
4434;SDS011;46552;52.150;8.428;2023-03-07T09:31:45;4.90;;;2.07;;
4434;SDS011;46552;52.150;8.428;2023-03-07T09:34:13;5.27;;;1.63;;
4434;SDS011;46552;52.150;8.428;2023-03-07T09:36:40;9.80;;;2.00;;
4434;SDS011;46552;52.150;8.428;2023-03-07T09:39:10;8.30;;;1.30;;
4434;SDS011;46552;52.150;8.428;2023-03-07T09:41:49;3.33;;;1.77;;
4434;SDS011;46552;52.150;8.428;2023-03-07T09:44:22;3.07;;;1.23;;
4434;SDS011;46552;52.150;8.428;2023-03-07T09:47:06;3.00;;;1.60;;
4434;SDS011;46552;52.150;8.428;2023-03-07T09:49:49;3.73;;;1.50;;
4434;SDS011;46552;52.150;8.428;2023-03-07T09:52:17;3.93;;;1.50;;
4434;SDS011;46552;52.150;8.428;2023-03-07T09:54:49;8.83;;;2.50;;
4434;SDS011;46552;52.150;8.428;2023-03-07T09:57:20;3.97;;;1.73;;
4434;SDS011;46552;52.150;8.428;2023-03-07T09:59:52;3.23;;;1.63;;
4434;SDS011;46552;52.150;8.428;2023-03-07T10:02:24;4.80;;;1.70;;
4434;SDS011;46552;52.150;8.428;2023-03-07T10:04:55;5.70;;;2.03;;
4434;SDS011;46552;52.150;8.428;2023-03-07T10:07:30;7.10;;;1.20;;
4434;SDS011;46552;52.150;8.428;2023-03-07T10:10:02;8.03;;;2.10;;
4434;SDS011;46552;52.150;8.428;2023-03-07T10:15:37;8.00;;;2.00;;
4434;SDS011;46552;52.150;8.428;2023-03-07T10:18:14;8.10;;;2.13;;
4434;SDS011;46552;52.150;8.428;2023-03-07T10:20:49;9.83;;;2.07;;
4434;SDS011;46552;52.150;8.428;2023-03-07T10:23:24;4.57;;;2.50;;
4434;SDS011;46552;52.150;8.428;2023-03-07T10:26:00;11.43;;;2.33;;
4434;SDS011;46552;52.150;8.428;2023-03-07T10:28:32;3.43;;;1.70;;
4434;SDS011;46552;52.150;8.428;2023-03-07T10:31:09;3.37;;;1.40;;
4434;SDS011;46552;52.150;8.428;2023-03-07T10:33:41;3.60;;;1.73;;
4434;SDS011;46552;52.150;8.428;2023-03-07T10:36:12;5.50;;;1.43;;
4434;SDS011;46552;52.150;8.428;2023-03-07T10:38:44;4.90;;;2.40;;
4434;SDS011;46552;52.150;8.428;2023-03-07T10:41:22;3.63;;;1.40;;
4434;SDS011;46552;52.150;8.428;2023-03-07T10:43:51;4.10;;;1.23;;
4434;SDS011;46552;52.150;8.428;2023-03-07T10:46:20;3.47;;;1.50;;
4434;SDS011;46552;52.150;8.428;2023-03-07T10:48:51;3.53;;;1.33;;
4434;SDS011;46552;52.150;8.428;2023-03-07T10:51:26;2.53;;;1.20;;
4434;SDS011;46552;52.150;8.428;2023-03-07T10:54:01;12.60;;;2.33;;
4434;SDS011;46552;52.150;8.428;2023-03-07T10:56:33;6.40;;;2.90;;
4434;SDS011;46552;52.150;8.428;2023-03-07T10:59:01;6.30;;;2.50;;
4434;SDS011;46552;52.150;8.428;2023-03-07T11:01:30;4.77;;;2.40;;
4434;SDS011;46552;52.150;8.428;2023-03-07T11:04:01;4.77;;;2.77;;
4434;SDS011;46552;52.150;8.428;2023-03-07T11:06:34;4.10;;;2.30;;
4434;SDS011;46552;52.150;8.428;2023-03-07T11:09:07;4.50;;;2.07;;
4434;SDS011;46552;52.150;8.428;2023-03-07T11:11:50;4.00;;;2.00;;
4434;SDS011;46552;52.150;8.428;2023-03-07T11:14:22;4.53;;;2.20;;
4434;SDS011;46552;52.150;8.428;2023-03-07T11:16:51;3.87;;;2.00;;
4434;SDS011;46552;52.150;8.428;2023-03-07T11:19:25;4.53;;;1.90;;
4434;SDS011;46552;52.150;8.428;2023-03-07T11:22:02;4.80;;;2.40;;
4434;SDS011;46552;52.150;8.428;2023-03-07T11:24:46;3.20;;;1.60;;
4434;SDS011;46552;52.150;8.428;2023-03-07T11:27:22;4.00;;;1.80;;
4434;SDS011;46552;52.150;8.428;2023-03-07T11:32:50;3.87;;;2.07;;
4434;SDS011;46552;52.150;8.428;2023-03-07T11:35:24;4.53;;;2.40;;
4434;SDS011;46552;52.150;8.428;2023-03-07T11:38:04;3.97;;;2.27;;
4434;SDS011;46552;52.150;8.428;2023-03-07T11:40:39;4.30;;;2.30;;
4434;SDS011;46552;52.150;8.428;2023-03-07T11:43:17;3.90;;;2.10;;
4434;SDS011;46552;52.150;8.428;2023-03-07T11:45:50;4.83;;;2.70;;
4434;SDS011;46552;52.150;8.428;2023-03-07T11:48:25;4.43;;;2.50;;
4434;SDS011;46552;52.150;8.428;2023-03-07T11:51:05;7.77;;;3.53;;
4434;SDS011;46552;52.150;8.428;2023-03-07T11:53:46;8.00;;;2.63;;
4434;SDS011;46552;52.150;8.428;2023-03-07T11:56:31;5.20;;;2.97;;
4434;SDS011;46552;52.150;8.428;2023-03-07T12:02:23;6.60;;;3.30;;
4434;SDS011;46552;52.150;8.428;2023-03-07T12:05:07;4.50;;;2.67;;
4434;SDS011;46552;52.150;8.428;2023-03-07T12:10:48;6.70;;;3.10;;
4434;SDS011;46552;52.150;8.428;2023-03-07T12:13:30;5.83;;;3.53;;
4434;SDS011;46552;52.150;8.428;2023-03-07T12:16:07;6.20;;;2.73;;
4434;SDS011;46552;52.150;8.428;2023-03-07T12:18:54;7.27;;;3.20;;
4434;SDS011;46552;52.150;8.428;2023-03-07T12:21:46;6.13;;;3.23;;
4434;SDS011;46552;52.150;8.428;2023-03-07T12:24:27;5.23;;;2.83;;
4434;SDS011;46552;52.150;8.428;2023-03-07T12:27:00;6.30;;;3.00;;
4434;SDS011;46552;52.150;8.428;2023-03-07T12:29:36;5.23;;;2.63;;
4434;SDS011;46552;52.150;8.428;2023-03-07T12:32:08;7.13;;;3.27;;
4434;SDS011;46552;52.150;8.428;2023-03-07T12:34:41;4.00;;;2.63;;
4434;SDS011;46552;52.150;8.428;2023-03-07T12:37:14;5.10;;;2.60;;
4434;SDS011;46552;52.150;8.428;2023-03-07T12:39:45;4.50;;;2.80;;
4434;SDS011;46552;52.150;8.428;2023-03-07T12:42:19;7.50;;;3.33;;
4434;SDS011;46552;52.150;8.428;2023-03-07T12:44:56;3.70;;;2.70;;
4434;SDS011;46552;52.150;8.428;2023-03-07T12:47:31;10.40;;;2.83;;
4434;SDS011;46552;52.150;8.428;2023-03-07T12:50:09;2.90;;;1.50;;
4434;SDS011;46552;52.150;8.428;2023-03-07T12:52:42;4.60;;;2.20;;
4434;SDS011;46552;52.150;8.428;2023-03-07T12:55:17;7.03;;;3.00;;
4434;SDS011;46552;52.150;8.428;2023-03-07T12:57:52;5.33;;;2.80;;
4434;SDS011;46552;52.150;8.428;2023-03-07T13:00:24;7.40;;;2.37;;
4434;SDS011;46552;52.150;8.428;2023-03-07T13:02:55;6.00;;;2.37;;
4434;SDS011;46552;52.150;8.428;2023-03-07T13:05:27;6.23;;;2.73;;
4434;SDS011;46552;52.150;8.428;2023-03-07T13:07:56;5.77;;;2.40;;
4434;SDS011;46552;52.150;8.428;2023-03-07T13:10:23;8.57;;;3.00;;
4434;SDS011;46552;52.150;8.428;2023-03-07T13:12:51;5.57;;;2.80;;
4434;SDS011;46552;52.150;8.428;2023-03-07T13:18:29;5.17;;;2.90;;
4434;SDS011;46552;52.150;8.428;2023-03-07T13:21:08;10.70;;;3.13;;
4434;SDS011;46552;52.150;8.428;2023-03-07T13:23:38;8.50;;;2.60;;
4434;SDS011;46552;52.150;8.428;2023-03-07T13:26:10;4.17;;;2.17;;
4434;SDS011;46552;52.150;8.428;2023-03-07T13:28:40;4.60;;;2.80;;
4434;SDS011;46552;52.150;8.428;2023-03-07T13:49:37;6.80;;;3.00;;
4434;SDS011;46552;52.150;8.428;2023-03-07T13:57:56;4.63;;;2.63;;
4434;SDS011;46552;52.150;8.428;2023-03-07T14:00:32;5.70;;;3.10;;
4434;SDS011;46552;52.150;8.428;2023-03-07T14:03:16;7.63;;;3.13;;
4434;SDS011;46552;52.150;8.428;2023-03-07T14:05:55;4.60;;;2.47;;
4434;SDS011;46552;52.150;8.428;2023-03-07T14:08:28;3.40;;;2.30;;
4434;SDS011;46552;52.150;8.428;2023-03-07T14:10:59;7.10;;;2.93;;
4434;SDS011;46552;52.150;8.428;2023-03-07T14:16:51;5.90;;;2.73;;
4434;SDS011;46552;52.150;8.428;2023-03-07T14:19:32;7.27;;;3.30;;
4434;SDS011;46552;52.150;8.428;2023-03-07T14:22:11;6.63;;;3.30;;
4434;SDS011;46552;52.150;8.428;2023-03-07T14:24:52;4.17;;;2.67;;
4434;SDS011;46552;52.150;8.428;2023-03-07T14:27:46;9.40;;;3.07;;
4434;SDS011;46552;52.150;8.428;2023-03-07T14:30:17;8.03;;;2.90;;
4434;SDS011;46552;52.150;8.428;2023-03-07T14:32:45;9.20;;;3.20;;
4434;SDS011;46552;52.150;8.428;2023-03-07T14:35:13;9.83;;;3.20;;
4434;SDS011;46552;52.150;8.428;2023-03-07T14:37:40;7.20;;;2.70;;
4434;SDS011;46552;52.150;8.428;2023-03-07T14:40:17;5.23;;;2.93;;
4434;SDS011;46552;52.150;8.428;2023-03-07T14:42:55;5.33;;;2.70;;
4434;SDS011;46552;52.150;8.428;2023-03-07T14:45:35;5.40;;;2.53;;
4434;SDS011;46552;52.150;8.428;2023-03-07T14:48:20;5.37;;;2.20;;
4434;SDS011;46552;52.150;8.428;2023-03-07T14:51:05;4.27;;;2.07;;
4434;SDS011;46552;52.150;8.428;2023-03-07T14:53:38;7.57;;;2.33;;
4434;SDS011;46552;52.150;8.428;2023-03-07T14:56:08;5.27;;;2.40;;
4434;SDS011;46552;52.150;8.428;2023-03-07T14:58:43;4.47;;;2.20;;
4434;SDS011;46552;52.150;8.428;2023-03-07T15:01:13;10.47;;;3.90;;
4434;SDS011;46552;52.150;8.428;2023-03-07T15:03:44;6.90;;;3.00;;
4434;SDS011;46552;52.150;8.428;2023-03-07T15:06:12;13.40;;;4.13;;
4434;SDS011;46552;52.150;8.428;2023-03-07T15:08:41;22.33;;;8.33;;
4434;SDS011;46552;52.150;8.428;2023-03-07T15:11:11;11.80;;;6.33;;
4434;SDS011;46552;52.150;8.428;2023-03-07T15:13:44;7.67;;;3.27;;
4434;SDS011;46552;52.150;8.428;2023-03-07T15:16:14;11.97;;;5.80;;
4434;SDS011;46552;52.150;8.428;2023-03-07T15:18:44;16.77;;;7.33;;
4434;SDS011;46552;52.150;8.428;2023-03-07T15:21:15;31.07;;;12.90;;
4434;SDS011;46552;52.150;8.428;2023-03-07T15:23:49;19.97;;;7.07;;
4434;SDS011;46552;52.150;8.428;2023-03-07T15:26:19;13.07;;;5.77;;
4434;SDS011;46552;52.150;8.428;2023-03-07T15:28:56;9.03;;;4.60;;
4434;SDS011;46552;52.150;8.428;2023-03-07T15:31:26;23.77;;;7.40;;
4434;SDS011;46552;52.150;8.428;2023-03-07T15:34:07;26.87;;;9.37;;
4434;SDS011;46552;52.150;8.428;2023-03-07T15:36:36;31.27;;;10.40;;
4434;SDS011;46552;52.150;8.428;2023-03-07T15:39:24;26.03;;;9.23;;
4434;SDS011;46552;52.150;8.428;2023-03-07T15:42:01;23.30;;;8.03;;
4434;SDS011;46552;52.150;8.428;2023-03-07T15:44:30;20.13;;;8.60;;
4434;SDS011;46552;52.150;8.428;2023-03-07T15:46:57;27.37;;;10.73;;
4434;SDS011;46552;52.150;8.428;2023-03-07T15:49:30;18.23;;;7.50;;
4434;SDS011;46552;52.150;8.428;2023-03-07T15:52:03;15.70;;;6.37;;